Terminal Aerodrome Forecast
Issued by NWS Wilmington, OH

Current Version | Previous Version | Graphics & Text | Print | Product List | Glossary On
Versions: 1 2 3 4 5 6 7 8 9 10 11 12 13 14 15 16 17 18 19 20 21 22 23 24 25 26 27 28 29 30
000
FTUS41 KILN 251600 AAD
TAFDAY
TAF AMD
KDAY 251643Z 2517/2612 21019G32KT P6SM VCSH SCT017 OVC045
      TEMPO 2517/2518 -SHRA BKN017 OVC045
     FM260000 20009KT P6SM BKN080
     FM260800 19008KT P6SM BKN040=

USA.gov is the U.S. government's official web portal to all federal, state and local government web resources and services.